Time;durP1;ratioP1;P1;durP2;ratioP2;P2;SDS_P1;SDS_P2;PMS_P1;PMS_P2;Temp;Humidity;BMP_temperature;BMP_pressure;BME280_temperature;BME280_humidity;BME280_pressure;Samples;Min_cycle;Max_cycle;Signal;HPM_P1;HPM_P2
2023/08/29 00:02:13;;;;;;;8.73;7.82;;;12.90;91.10;;;;;;5056379;28;20039;-45
2023/08/29 00:04:40;;;;;;;9.68;8.77;;;12.80;91.00;;;;;;5052465;28;20057;-47
2023/08/29 00:07:10;;;;;;;8.90;8.07;;;12.80;91.10;;;;;;5059020;28;20071;-46
2023/08/29 00:09:36;;;;;;;8.50;7.03;;;12.80;91.10;;;;;;5070646;28;20032;-45
2023/08/29 00:12:05;;;;;;;8.10;7.38;;;12.80;91.10;;;;;;5058047;28;20028;-49
2023/08/29 00:14:33;;;;;;;7.75;7.05;;;12.70;91.10;;;;;;5066938;28;20087;-48
2023/08/29 00:16:59;;;;;;;9.02;8.20;;;12.70;91.10;;;;;;5048935;28;20111;-50
2023/08/29 00:19:26;;;;;;;8.48;7.70;;;12.70;91.10;;;;;;5050679;28;20017;-49
2023/08/29 00:21:52;;;;;;;7.95;7.22;;;12.70;91.10;;;;;;5046713;28;20025;-48
2023/08/29 00:24:19;;;;;;;8.00;7.20;;;12.60;91.10;;;;;;5070979;28;20033;-47
2023/08/29 00:26:46;;;;;;;9.38;8.23;;;12.60;90.90;;;;;;5064501;28;20055;-49
2023/08/29 00:29:13;;;;;;;8.32;7.53;;;12.60;91.00;;;;;;5045386;28;20104;-48
2023/08/29 00:31:39;;;;;;;8.98;7.78;;;12.60;91.00;;;;;;5039760;28;20033;-49
2023/08/29 00:34:04;;;;;;;8.40;7.55;;;12.50;91.00;;;;;;5066723;28;20094;-49
2023/08/29 00:36:31;;;;;;;8.30;7.50;;;12.50;91.10;;;;;;5045107;28;20044;-49
2023/08/29 00:39:01;;;;;;;8.18;7.32;;;12.50;91.20;;;;;;5063837;28;20067;-46
2023/08/29 00:41:30;;;;;;;9.15;8.18;;;12.60;91.30;;;;;;5067019;28;20048;-48
2023/08/29 00:44:02;;;;;;;7.85;7.05;;;12.60;91.40;;;;;;5058667;28;20040;-49
2023/08/29 00:46:31;;;;;;;8.20;7.45;;;12.50;91.20;;;;;;5059136;28;20761;-44
2023/08/29 00:49:01;;;;;;;9.60;7.57;;;12.50;91.10;;;;;;5060876;28;20048;-45
2023/08/29 00:51:28;;;;;;;;;;;12.50;91.20;;;;;;5033948;28;20043;-46
2023/08/29 00:53:56;;;;;;;9.07;7.63;;;12.50;91.10;;;;;;5056541;28;19999;-47
2023/08/29 00:56:21;;;;;;;8.68;7.78;;;12.40;91.00;;;;;;5062921;28;20037;-45
2023/08/29 00:58:49;;;;;;;8.20;7.40;;;12.40;91.10;;;;;;5064804;28;20037;-46
2023/08/29 01:01:16;;;;;;;9.38;8.40;;;12.40;91.20;;;;;;5039229;28;20024;-46
2023/08/29 01:03:43;;;;;;;7.68;6.93;;;12.40;91.20;;;;;;5028869;28;20017;-46
2023/08/29 01:06:12;;;;;;;8.52;7.10;;;12.40;91.20;;;;;;5057196;28;20013;-45
2023/08/29 01:08:38;;;;;;;7.78;7.00;;;12.40;91.30;;;;;;5046581;28;20037;-47
2023/08/29 01:11:33;;;;;;;8.40;7.60;;;12.40;91.20;;;;;;5041729;28;20047;-44
2023/08/29 01:14:16;;;;;;;8.32;7.53;;;12.40;91.30;;;;;;5074496;28;20024;-45
2023/08/29 01:17:12;;;;;;;11.57;6.93;;;12.30;91.30;;;;;;5046259;28;20059;-47
2023/08/29 01:19:40;;;;;;;8.00;7.20;;;12.40;91.30;;;;;;5003223;28;20084;-48
2023/08/29 01:22:44;;;;;;;8.60;7.72;;;12.30;90.90;;;;;;5031304;28;20041;-43
2023/08/29 01:25:34;;;;;;;7.30;6.45;;;12.30;91.00;;;;;;5034239;28;20044;-49
2023/08/29 01:28:01;;;;;;;;;;;12.30;91.20;;;;;;5020689;28;20025;-46
2023/08/29 01:30:28;;;;;;;7.50;6.72;;;12.20;91.10;;;;;;5048876;28;19960;-45
2023/08/29 01:32:54;;;;;;;8.45;7.15;;;12.30;91.10;;;;;;5036191;28;20033;-46
2023/08/29 01:35:22;;;;;;;7.25;6.55;;;12.20;91.20;;;;;;5062549;28;20098;-48
2023/08/29 01:37:49;;;;;;;6.80;6.10;;;12.20;91.10;;;;;;5060406;28;20032;-45
2023/08/29 01:40:14;;;;;;;7.78;6.85;;;12.20;91.10;;;;;;5045504;28;20043;-46
2023/08/29 01:42:41;;;;;;;7.78;6.90;;;12.20;91.10;;;;;;5039509;28;20029;-43
2023/08/29 01:45:08;;;;;;;7.90;7.10;;;12.20;91.10;;;;;;5040933;28;20029;-44
2023/08/29 01:47:34;;;;;;;6.70;6.00;;;12.10;91.20;;;;;;5069523;28;20025;-47
2023/08/29 01:50:04;;;;;;;8.65;6.50;;;12.10;91.20;;;;;;5068713;28;20063;-44
2023/08/29 01:52:31;;;;;;;8.52;6.68;;;12.10;91.10;;;;;;5046238;28;20099;-44
2023/08/29 01:54:58;;;;;;;7.55;6.75;;;12.10;91.10;;;;;;5073553;28;20036;-44
2023/08/29 01:57:26;;;;;;;7.53;5.72;;;12.00;91.10;;;;;;5054321;28;20364;-46
2023/08/29 01:59:52;;;;;;;6.95;6.25;;;12.00;91.20;;;;;;5066891;28;20028;-45
2023/08/29 02:02:19;;;;;;;8.43;6.00;;;12.00;91.40;;;;;;5024117;28;20040;-48
2023/08/29 02:04:46;;;;;;;7.18;6.15;;;12.10;91.50;;;;;;5051281;28;21805;-44
2023/08/29 02:07:12;;;;;;;6.93;6.20;;;12.10;91.50;;;;;;5068203;28;20115;-44
2023/08/29 02:09:37;;;;;;;7.13;6.43;;;12.10;91.50;;;;;;5019287;28;20177;-49
2023/08/29 02:12:05;;;;;;;8.23;7.35;;;12.10;91.50;;;;;;5033129;28;20033;-45
2023/08/29 02:14:34;;;;;;;8.68;6.97;;;12.10;91.50;;;;;;5037373;28;20039;-46
2023/08/29 02:17:01;;;;;;;7.63;6.90;;;12.10;91.50;;;;;;5052983;28;20091;-47
2023/08/29 02:19:28;;;;;;;9.15;8.00;;;12.10;91.50;;;;;;5067443;28;20774;-44
2023/08/29 02:21:56;;;;;;;8.15;6.65;;;12.10;91.60;;;;;;5016985;28;20068;-48
2023/08/29 02:24:22;;;;;;;8.27;7.43;;;12.10;91.60;;;;;;5055433;28;20556;-45
2023/08/29 02:26:54;;;;;;;7.55;6.75;;;12.10;91.70;;;;;;5055309;28;20036;-46
2023/08/29 02:29:19;;;;;;;8.07;7.28;;;12.10;91.80;;;;;;5063009;28;20033;-44
2023/08/29 02:31:46;;;;;;;6.53;5.72;;;12.10;91.80;;;;;;5054331;28;20038;-47
2023/08/29 02:34:14;;;;;;;7.10;6.38;;;12.10;91.90;;;;;;5038913;28;20100;-50
2023/08/29 02:36:42;;;;;;;7.57;6.30;;;12.10;91.90;;;;;;5067520;28;20512;-45
2023/08/29 02:39:19;;;;;;;8.02;6.38;;;12.20;91.90;;;;;;5040078;28;20390;-45
2023/08/29 02:41:45;;;;;;;6.40;5.72;;;12.20;91.90;;;;;;5044351;28;20021;-43
2023/08/29 02:44:15;;;;;;;7.05;6.35;;;12.20;91.80;;;;;;5038273;28;20468;-45
2023/08/29 02:46:42;;;;;;;9.07;6.15;;;12.20;91.70;;;;;;5049821;28;20036;-43
2023/08/29 02:49:10;;;;;;;7.05;6.35;;;12.20;91.70;;;;;;5015528;28;20039;-48
2023/08/29 02:51:37;;;;;;;7.45;6.68;;;12.20;91.60;;;;;;5060417;28;20032;-47
2023/08/29 02:54:04;;;;;;;7.57;6.78;;;12.20;91.70;;;;;;5062890;28;20103;-46
2023/08/29 02:56:29;;;;;;;7.60;6.90;;;12.10;91.70;;;;;;5043763;28;20037;-47
2023/08/29 02:58:55;;;;;;;8.55;6.60;;;12.10;91.60;;;;;;5014742;28;20037;-46
2023/08/29 03:01:23;;;;;;;7.93;7.03;;;12.10;91.80;;;;;;5050748;28;20428;-45
2023/08/29 03:03:48;;;;;;;7.43;6.20;;;12.10;91.90;;;;;;5056439;28;20307;-45
2023/08/29 03:06:17;;;;;;;22.15;7.30;;;12.10;91.80;;;;;;5071240;28;20028;-44
2023/08/29 03:08:42;;;;;;;7.95;7.15;;;12.10;91.80;;;;;;5037634;28;20021;-43
2023/08/29 03:11:08;;;;;;;8.52;6.85;;;12.10;91.70;;;;;;5071988;28;20024;-45
2023/08/29 03:13:35;;;;;;;8.45;7.65;;;12.00;91.70;;;;;;5046164;28;20036;-45
2023/08/29 03:16:12;;;;;;;8.25;6.45;;;12.00;91.80;;;;;;5055611;28;20021;-47
2023/08/29 03:18:45;;;;;;;8.57;6.20;;;11.90;91.70;;;;;;5054639;28;20032;-47
2023/08/29 03:21:11;;;;;;;8.65;7.47;;;11.90;91.80;;;;;;5056396;28;20091;-45
2023/08/29 03:23:37;;;;;;;7.45;6.68;;;11.90;91.70;;;;;;5040067;28;20024;-43
2023/08/29 03:26:11;;;;;;;8.32;6.45;;;11.90;91.90;;;;;;5067461;28;20025;-44
2023/08/29 03:28:38;;;;;;;7.38;6.47;;;11.90;92.00;;;;;;5067848;28;20025;-43
2023/08/29 03:31:09;;;;;;;9.23;6.57;;;11.90;91.90;;;;;;5057011;28;20024;-46
2023/08/29 03:33:37;;;;;;;7.85;6.38;;;11.90;92.00;;;;;;5064813;28;20030;-47
2023/08/29 03:36:05;;;;;;;8.38;7.07;;;11.90;92.10;;;;;;5030158;28;20033;-42
2023/08/29 03:38:37;;;;;;;7.82;6.28;;;11.90;92.00;;;;;;5018638;28;20076;-45
2023/08/29 03:41:05;;;;;;;7.60;6.82;;;11.90;92.00;;;;;;5014140;28;20029;-46
2023/08/29 03:43:36;;;;;;;6.85;6.15;;;11.90;92.10;;;;;;5004960;28;20107;-43
2023/08/29 03:46:06;;;;;;;8.40;6.55;;;11.90;92.00;;;;;;5056018;28;20052;-43
2023/08/29 03:48:40;;;;;;;7.13;5.82;;;12.00;92.10;;;;;;5014201;28;20035;-44
2023/08/29 03:51:07;;;;;;;7.60;6.35;;;12.00;91.90;;;;;;5054741;28;20099;-45
2023/08/29 03:53:36;;;;;;;7.85;6.80;;;12.00;92.10;;;;;;5063859;28;20028;-45
2023/08/29 03:56:08;;;;;;;7.20;6.45;;;12.00;92.10;;;;;;5020307;28;20039;-44
2023/08/29 03:58:35;;;;;;;8.15;6.35;;;12.10;92.20;;;;;;5066022;28;20029;-49
2023/08/29 04:01:03;;;;;;;14.27;7.22;;;12.10;92.30;;;;;;5033207;28;20062;-43
2023/08/29 04:03:30;;;;;;;7.38;6.55;;;12.20;92.40;;;;;;5050864;28;20033;-46
2023/08/29 04:05:57;;;;;;;7.40;6.70;;;12.20;92.50;;;;;;5063752;28;20042;-44
2023/08/29 04:08:24;;;;;;;7.53;6.63;;;12.20;92.50;;;;;;5030852;28;20029;-47
2023/08/29 04:10:49;;;;;;;9.18;7.30;;;12.20;92.40;;;;;;5063845;28;20107;-46
2023/08/29 04:13:15;;;;;;;8.57;7.40;;;12.30;92.50;;;;;;5004612;28;20165;-46
2023/08/29 04:15:44;;;;;;;7.75;6.95;;;12.30;92.60;;;;;;5020015;28;20025;-44
2023/08/29 04:18:11;;;;;;;8.00;7.28;;;12.40;92.70;;;;;;5046787;28;20057;-44
2023/08/29 04:20:38;;;;;;;8.88;7.47;;;12.40;92.60;;;;;;5059450;28;20374;-47
2023/08/29 04:23:07;;;;;;;10.57;7.95;;;12.40;92.60;;;;;;5067301;28;20036;-47
2023/08/29 04:25:41;;;;;;;8.88;7.97;;;12.40;92.50;;;;;;5023331;28;20362;-43
2023/08/29 04:28:10;;;;;;;7.85;7.10;;;12.40;92.40;;;;;;5030924;28;20024;-48
2023/08/29 04:30:37;;;;;;;8.20;7.40;;;12.40;92.50;;;;;;5062373;28;20343;-49
2023/08/29 04:33:06;;;;;;;8.30;7.43;;;12.40;92.50;;;;;;5036001;28;20459;-43
2023/08/29 04:35:32;;;;;;;12.32;7.85;;;12.40;92.40;;;;;;5033360;28;20040;-43
2023/08/29 04:37:59;;;;;;;9.93;7.93;;;12.40;92.50;;;;;;5066954;28;20021;-46
2023/08/29 04:40:27;;;;;;;10.65;8.00;;;12.40;92.30;;;;;;5037576;28;20056;-45
2023/08/29 04:42:54;;;;;;;8.52;7.70;;;12.30;92.30;;;;;;5050491;28;20085;-44
2023/08/29 04:45:23;;;;;;;9.73;7.53;;;12.30;92.40;;;;;;5036076;28;20030;-43
2023/08/29 04:47:51;;;;;;;8.93;7.55;;;12.30;92.40;;;;;;5074068;28;20425;-44
2023/08/29 04:50:17;;;;;;;8.25;7.38;;;12.40;92.40;;;;;;5039301;28;20911;-43
2023/08/29 04:52:48;;;;;;;8.95;7.57;;;12.40;92.50;;;;;;5074494;28;20029;-43
2023/08/29 04:55:19;;;;;;;9.63;7.53;;;12.40;92.50;;;;;;5048854;28;20116;-48
2023/08/29 04:57:44;;;;;;;;;;;12.40;92.60;;;;;;5031197;28;20032;-45
2023/08/29 05:00:12;;;;;;;9.25;8.02;;;12.40;92.80;;;;;;5068152;28;19966;-44
2023/08/29 05:02:39;;;;;;;10.13;7.70;;;12.50;92.90;;;;;;5048313;28;20051;-46
2023/08/29 05:05:10;;;;;;;9.32;8.43;;;12.50;93.00;;;;;;5038717;28;20037;-49
2023/08/29 05:07:38;;;;;;;10.60;8.88;;;12.60;93.10;;;;;;5054407;28;20021;-47
2023/08/29 05:10:06;;;;;;;9.55;8.57;;;12.60;93.30;;;;;;5058890;28;20048;-46
2023/08/29 05:12:33;;;;;;;11.45;9.73;;;12.70;93.40;;;;;;5053824;28;20116;-47
2023/08/29 05:15:01;;;;;;;9.65;8.65;;;12.80;93.50;;;;;;5065423;28;20029;-45
2023/08/29 05:17:29;;;;;;;8.82;7.93;;;12.80;93.50;;;;;;5046737;28;20053;-45
2023/08/29 05:19:56;;;;;;;12.05;8.68;;;12.90;93.50;;;;;;5055631;28;20124;-44
2023/08/29 05:22:23;;;;;;;10.35;9.32;;;12.90;93.60;;;;;;5056240;28;20020;-44
2023/08/29 05:24:50;;;;;;;10.02;9.05;;;13.00;93.60;;;;;;5066716;28;20385;-43
2023/08/29 05:27:15;;;;;;;9.40;8.50;;;13.10;93.60;;;;;;5065963;28;20043;-45
2023/08/29 05:29:43;;;;;;;10.02;9.02;;;13.10;93.70;;;;;;5044611;28;20037;-46
2023/08/29 05:32:11;;;;;;;10.13;8.93;;;13.20;93.70;;;;;;5065112;28;20028;-47
2023/08/29 05:34:43;;;;;;;9.63;7.87;;;13.30;93.80;;;;;;5044633;28;20090;-48
2023/08/29 05:37:09;;;;;;;8.57;7.68;;;13.40;93.80;;;;;;5051369;28;20287;-45
2023/08/29 05:39:37;;;;;;;10.07;8.30;;;13.40;93.90;;;;;;5034432;28;20091;-42
2023/08/29 05:42:04;;;;;;;11.05;7.80;;;13.40;94.00;;;;;;5032191;28;20033;-46
2023/08/29 05:44:31;;;;;;;10.00;7.93;;;13.50;93.90;;;;;;5036752;28;20025;-43
2023/08/29 05:46:59;;;;;;;7.95;7.15;;;13.50;94.00;;;;;;5066215;28;20029;-46
2023/08/29 05:49:27;;;;;;;9.35;8.13;;;13.60;94.00;;;;;;5050436;28;20036;-44
2023/08/29 05:51:55;;;;;;;8.82;7.78;;;13.60;94.00;;;;;;5061940;28;20036;-48
2023/08/29 05:54:22;;;;;;;7.53;6.82;;;13.70;94.10;;;;;;5061600;28;20501;-46
2023/08/29 05:56:47;;;;;;;9.95;7.18;;;13.80;94.00;;;;;;5072644;28;20032;-46
2023/08/29 05:59:17;;;;;;;6.85;6.10;;;13.80;94.10;;;;;;5052587;28;20336;-43
2023/08/29 06:01:42;;;;;;;8.13;6.55;;;13.90;94.10;;;;;;5054422;28;20573;-46
2023/08/29 06:04:08;;;;;;;6.65;5.60;;;13.90;94.10;;;;;;5047151;28;20020;-46
2023/08/29 06:06:40;;;;;;;5.93;5.32;;;14.00;94.10;;;;;;5066085;28;20028;-48
2023/08/29 06:09:10;;;;;;;5.10;4.40;;;14.00;94.10;;;;;;5033645;28;20030;-46
2023/08/29 06:11:35;;;;;;;5.47;4.57;;;14.20;94.20;;;;;;5041467;28;20043;-46
2023/08/29 06:14:07;;;;;;;6.20;5.55;;;14.20;94.30;;;;;;5050875;28;20036;-48
2023/08/29 06:16:34;;;;;;;7.50;5.93;;;14.40;94.30;;;;;;5061746;28;20024;-51
2023/08/29 06:18:59;;;;;;;8.32;6.55;;;14.40;94.30;;;;;;5063303;28;20028;-44
2023/08/29 06:21:29;;;;;;;5.68;4.80;;;14.50;94.30;;;;;;5052938;28;20029;-46
2023/08/29 06:23:55;;;;;;;5.95;4.85;;;14.70;94.40;;;;;;5034678;28;20063;-44
2023/08/29 06:26:21;;;;;;;6.47;5.55;;;14.80;94.40;;;;;;5024884;28;20517;-48
2023/08/29 06:28:49;;;;;;;5.45;4.32;;;14.90;94.30;;;;;;5016354;28;20033;-48
2023/08/29 06:31:16;;;;;;;5.57;3.90;;;15.00;94.30;;;;;;5039638;28;20041;-47
2023/08/29 06:33:43;;;;;;;5.05;4.35;;;15.10;94.20;;;;;;5026635;28;20052;-46
2023/08/29 06:36:09;;;;;;;4.82;3.25;;;15.30;94.30;;;;;;5072540;28;20025;-50
2023/08/29 06:38:37;;;;;;;4.60;3.42;;;15.50;94.40;;;;;;5062463;28;20136;-46
2023/08/29 06:41:04;;;;;;;4.03;3.40;;;15.60;94.30;;;;;;5017213;28;20029;-48
2023/08/29 06:43:39;;;;;;;4.45;3.00;;;15.90;94.30;;;;;;5041549;28;20045;-51
2023/08/29 06:46:06;;;;;;;3.40;2.22;;;15.90;94.00;;;;;;5055874;28;20025;-47
2023/08/29 06:48:33;;;;;;;3.65;2.13;;;16.10;93.50;;;;;;5046053;28;20043;-46
2023/08/29 06:51:01;;;;;;;3.55;1.65;;;16.10;92.60;;;;;;5066157;28;20504;-50
2023/08/29 06:53:28;;;;;;;3.85;2.00;;;16.10;91.80;;;;;;5057388;28;20018;-51
2023/08/29 06:55:58;;;;;;;4.15;2.63;;;16.30;91.80;;;;;;5061465;28;20361;-52
2023/08/29 06:58:29;;;;;;;2.97;1.67;;;16.40;91.00;;;;;;5063583;28;20054;-51
2023/08/29 07:00:55;;;;;;;;;;;16.50;90.90;;;;;;5057529;28;20454;-48
2023/08/29 07:03:24;;;;;;;4.22;1.63;;;16.50;90.20;;;;;;5066275;28;19904;-46
2023/08/29 07:05:50;;;;;;;2.75;1.20;;;16.60;89.70;;;;;;5063750;28;20119;-51
2023/08/29 07:08:22;;;;;;;2.40;1.08;;;16.50;88.40;;;;;;5051457;28;20411;-53
2023/08/29 07:10:48;;;;;;;2.05;0.88;;;16.60;88.40;;;;;;5056120;28;20120;-50
2023/08/29 07:13:17;;;;;;;2.13;0.90;;;16.50;87.70;;;;;;5018155;28;20127;-51
2023/08/29 07:15:45;;;;;;;2.03;0.90;;;16.50;87.70;;;;;;5053596;28;20106;-48
2023/08/29 07:18:13;;;;;;;1.27;0.73;;;16.60;87.90;;;;;;5050651;28;20033;-52
2023/08/29 07:20:41;;;;;;;2.55;1.25;;;16.60;87.20;;;;;;5031583;28;20021;-51
2023/08/29 07:23:08;;;;;;;1.85;1.05;;;16.50;86.80;;;;;;5059757;28;20020;-50
2023/08/29 07:25:44;;;;;;;2.35;1.05;;;16.50;87.00;;;;;;5053321;28;20025;-50
2023/08/29 07:28:15;;;;;;;2.30;1.15;;;16.60;87.40;;;;;;5060463;28;20052;-49
2023/08/29 07:30:46;;;;;;;2.05;1.17;;;16.70;87.70;;;;;;5019800;28;20031;-49
2023/08/29 07:33:12;;;;;;;2.05;1.00;;;16.70;87.60;;;;;;5052600;28;20260;-51
2023/08/29 07:35:42;;;;;;;2.75;1.05;;;16.80;87.30;;;;;;5065717;28;20099;-53
2023/08/29 07:38:08;;;;;;;1.98;1.25;;;16.80;87.30;;;;;;5063594;28;20035;-52
2023/08/29 07:40:34;;;;;;;2.00;1.10;;;16.90;87.10;;;;;;5053931;28;20033;-52
2023/08/29 07:43:07;;;;;;;2.42;0.98;;;16.90;87.20;;;;;;5030126;28;20025;-52
2023/08/29 07:45:35;;;;;;;2.60;1.00;;;17.00;87.20;;;;;;5047594;28;20036;-51
2023/08/29 07:48:01;;;;;;;2.20;1.05;;;17.00;86.80;;;;;;5042864;28;20021;-52
2023/08/29 07:50:28;;;;;;;3.60;0.90;;;17.00;86.60;;;;;;5014459;28;20037;-52
2023/08/29 07:52:54;;;;;;;4.38;1.40;;;17.10;87.00;;;;;;5055899;28;20037;-53
2023/08/29 07:55:21;;;;;;;1.13;0.68;;;17.30;87.30;;;;;;5029365;28;20074;-53
2023/08/29 07:57:52;;;;;;;2.08;0.93;;;17.40;87.00;;;;;;5055094;28;20807;-53
2023/08/29 08:00:18;;;;;;;1.67;0.93;;;17.50;86.00;;;;;;5059043;28;20419;-51
2023/08/29 08:02:45;;;;;;;2.97;1.10;;;17.60;86.00;;;;;;5038377;28;20040;-48
2023/08/29 08:05:16;;;;;;;1.77;1.05;;;17.70;85.20;;;;;;5067812;28;20090;-52
2023/08/29 08:07:43;;;;;;;2.33;0.80;;;17.80;85.40;;;;;;5029516;28;20428;-53
2023/08/29 08:10:12;;;;;;;2.78;1.30;;;17.90;84.80;;;;;;5037070;28;20441;-54
2023/08/29 08:12:41;;;;;;;1.33;0.83;;;17.90;84.50;;;;;;5035025;28;20359;-50
2023/08/29 08:15:09;;;;;;;1.50;0.77;;;17.90;83.70;;;;;;5039572;28;20029;-52
2023/08/29 08:17:38;;;;;;;2.38;0.60;;;17.90;83.50;;;;;;5056663;28;20416;-52
2023/08/29 08:20:08;;;;;;;1.75;0.80;;;17.90;84.30;;;;;;5055878;28;20115;-52
2023/08/29 08:22:39;;;;;;;2.15;0.90;;;18.00;83.70;;;;;;5070801;28;20103;-50
2023/08/29 08:25:05;;;;;;;2.30;0.77;;;18.10;83.90;;;;;;5060885;28;20012;-53
2023/08/29 08:27:32;;;;;;;4.05;0.90;;;18.30;84.20;;;;;;5048648;28;20370;-52
2023/08/29 08:29:59;;;;;;;1.42;0.60;;;18.40;83.20;;;;;;5060279;28;20112;-52
2023/08/29 08:32:29;;;;;;;1.55;0.55;;;18.40;82.90;;;;;;5060052;28;20044;-53
2023/08/29 08:34:57;;;;;;;2.08;0.55;;;18.60;83.10;;;;;;5067620;28;20725;-53
2023/08/29 08:37:23;;;;;;;1.58;0.82;;;18.50;83.00;;;;;;5055730;28;20398;-53
2023/08/29 08:39:51;;;;;;;2.95;0.93;;;18.60;82.30;;;;;;5052380;28;20091;-50
2023/08/29 08:42:21;;;;;;;2.13;0.70;;;18.50;81.60;;;;;;5019783;28;20038;-52
2023/08/29 08:44:47;;;;;;;1.42;0.60;;;18.50;82.30;;;;;;5044892;28;20102;-55
2023/08/29 08:47:18;;;;;;;2.30;0.70;;;18.40;82.00;;;;;;5062681;28;20032;-55
2023/08/29 08:49:45;;;;;;;2.03;0.70;;;18.40;81.90;;;;;;5047101;28;20117;-51
2023/08/29 08:52:14;;;;;;;2.70;1.00;;;18.40;81.30;;;;;;5070549;28;20094;-52
2023/08/29 08:54:41;;;;;;;1.25;0.60;;;18.40;82.00;;;;;;5031627;28;20049;-52
2023/08/29 08:57:11;;;;;;;1.95;0.73;;;18.50;82.70;;;;;;5064099;28;20115;-55
2023/08/29 08:59:37;;;;;;;3.22;1.00;;;18.50;82.00;;;;;;5056936;28;20054;-55
2023/08/29 09:02:11;;;;;;;1.98;0.82;;;18.50;80.50;;;;;;5042217;28;20053;-49
2023/08/29 09:04:37;;;;;;;1.85;0.60;;;18.60;80.70;;;;;;5030476;28;20523;-52
2023/08/29 09:07:04;;;;;;;1.25;0.60;;;18.70;80.30;;;;;;5029969;28;20112;-54
2023/08/29 09:09:31;;;;;;;2.38;0.68;;;18.80;80.30;;;;;;5056832;28;20036;-54
2023/08/29 09:11:57;;;;;;;1.90;0.60;;;18.80;79.80;;;;;;5042605;28;20044;-55
2023/08/29 09:14:25;;;;;;;2.75;0.50;;;18.80;80.20;;;;;;5045741;28;20040;-55
2023/08/29 09:16:56;;;;;;;4.43;0.90;;;18.80;78.60;;;;;;5046923;28;20041;-54
2023/08/29 09:19:27;;;;;;;1.55;0.57;;;18.70;78.60;;;;;;5035376;28;20092;-55
2023/08/29 09:21:55;;;;;;;5.10;0.68;;;18.70;79.80;;;;;;5030427;28;20033;-56
2023/08/29 09:24:33;;;;;;;1.30;0.77;;;18.90;80.20;;;;;;5059770;28;20424;-56
2023/08/29 09:27:00;;;;;;;2.55;0.50;;;19.00;78.80;;;;;;5025795;28;20025;-55
2023/08/29 09:29:29;;;;;;;2.05;0.40;;;19.20;78.80;;;;;;5064939;28;20685;-52
2023/08/29 09:31:58;;;;;;;2.85;1.13;;;19.20;77.50;;;;;;5041331;28;20495;-53
2023/08/29 09:34:48;;;;;;;0.98;0.40;;;19.40;78.40;;;;;;5047510;28;20095;-55
2023/08/29 09:37:13;;;;;;;1.73;0.50;;;19.50;77.50;;;;;;5039703;28;20476;-53
2023/08/29 09:39:39;;;;;;;3.22;0.85;;;19.40;75.40;;;;;;5047231;28;20041;-56
2023/08/29 09:42:07;;;;;;;2.25;0.95;;;19.50;76.00;;;;;;5065865;28;20025;-56
2023/08/29 09:44:41;;;;;;;3.00;0.45;;;19.40;75.10;;;;;;5051732;28;20036;-53
2023/08/29 09:47:09;;;;;;;2.25;0.77;;;19.40;75.70;;;;;;5051858;28;20022;-56
2023/08/29 09:49:53;;;;;;;1.67;0.60;;;19.40;75.60;;;;;;5015987;28;20712;-55
2023/08/29 09:52:25;;;;;;;1.02;0.60;;;19.60;76.30;;;;;;5059229;28;20040;-52
2023/08/29 09:54:52;;;;;;;1.55;0.50;;;19.70;75.30;;;;;;5021532;28;20545;-53
2023/08/29 09:57:23;;;;;;;2.45;0.70;;;19.70;75.10;;;;;;5050372;28;20366;-56
2023/08/29 09:59:51;;;;;;;1.10;0.40;;;19.60;73.80;;;;;;5036699;28;20364;-49
2023/08/29 10:02:21;;;;;;;1.17;0.35;;;19.70;73.40;;;;;;5047546;28;20029;-49
2023/08/29 10:04:55;;;;;;;1.75;0.65;;;19.80;74.20;;;;;;5044341;28;20085;-53
2023/08/29 10:07:26;;;;;;;2.15;0.88;;;19.80;74.00;;;;;;5072999;28;20391;-51
2023/08/29 10:09:52;;;;;;;1.80;0.60;;;19.90;73.40;;;;;;5014179;28;20136;-52
2023/08/29 10:12:19;;;;;;;1.38;0.50;;;19.90;74.00;;;;;;5042822;28;20111;-52
2023/08/29 10:14:45;;;;;;;2.58;0.80;;;20.00;74.10;;;;;;5055025;28;20029;-51
2023/08/29 10:17:13;;;;;;;1.35;0.65;;;20.20;74.20;;;;;;5044389;28;20532;-51
2023/08/29 10:19:40;;;;;;;1.63;0.60;;;20.10;73.80;;;;;;5060816;28;20123;-50
2023/08/29 10:22:10;;;;;;;3.90;0.60;;;20.20;74.10;;;;;;5055568;28;20029;-51
2023/08/29 10:24:39;;;;;;;0.65;0.40;;;20.40;73.80;;;;;;5042431;28;20030;-60
2023/08/29 10:27:05;;;;;;;1.08;0.63;;;20.40;72.90;;;;;;5048344;28;20029;-54
2023/08/29 10:29:32;;;;;;;1.65;0.50;;;20.30;71.70;;;;;;5044377;28;20035;-53
2023/08/29 10:32:02;;;;;;;3.30;0.65;;;20.40;72.60;;;;;;5041493;28;20040;-54
2023/08/29 10:34:30;;;;;;;4.13;0.82;;;20.80;75.10;;;;;;5015264;28;20029;-53
2023/08/29 10:37:03;;;;;;;1.63;0.43;;;21.10;71.00;;;;;;5043148;28;20028;-54
2023/08/29 10:39:32;;;;;;;2.33;0.55;;;21.30;70.60;;;;;;5065318;28;20049;-56
2023/08/29 10:41:59;;;;;;;1.92;0.70;;;21.50;69.90;;;;;;5054111;28;20021;-55
2023/08/29 10:44:31;;;;;;;1.83;0.93;;;21.70;70.00;;;;;;5050130;28;20039;-57
2023/08/29 10:47:26;;;;;;;1.98;0.70;;;21.90;69.60;;;;;;5061738;28;20126;-54
2023/08/29 10:50:21;;;;;;;2.20;0.77;;;21.80;68.70;;;;;;5055674;28;20103;-53
2023/08/29 10:52:54;;;;;;;1.13;0.60;;;21.60;66.30;;;;;;5071774;28;20028;-53
2023/08/29 10:55:41;;;;;;;1.45;0.55;;;21.50;67.80;;;;;;5043129;28;20037;-55
2023/08/29 10:58:38;;;;;;;2.33;0.90;;;21.50;68.00;;;;;;5047372;28;20506;-52
2023/08/29 11:01:40;;;;;;;3.08;0.63;;;21.30;67.30;;;;;;5042672;28;20089;-58
2023/08/29 11:04:21;;;;;;;2.65;0.98;;;21.00;67.00;;;;;;5055690;28;20047;-55
2023/08/29 11:06:54;;;;;;;3.92;0.60;;;20.50;67.40;;;;;;5048108;28;20037;-53
2023/08/29 11:09:21;;;;;;;1.08;0.60;;;20.40;67.60;;;;;;5055137;28;20051;-55
2023/08/29 11:12:10;;;;;;;0.90;0.30;;;20.40;68.00;;;;;;5029317;28;20036;-51
2023/08/29 11:14:55;;;;;;;1.60;0.80;;;20.30;67.90;;;;;;5016280;28;20029;-53
2023/08/29 11:17:26;;;;;;;3.15;0.68;;;20.40;69.70;;;;;;5047166;28;20469;-54
2023/08/29 11:19:56;;;;;;;2.15;0.75;;;20.60;69.50;;;;;;5039212;28;20029;-56
2023/08/29 11:22:31;;;;;;;0.95;0.40;;;20.80;67.90;;;;;;5051678;28;20450;-54
2023/08/29 11:25:03;;;;;;;1.13;0.50;;;21.00;68.20;;;;;;5031669;28;20052;-51
2023/08/29 11:27:38;;;;;;;0.77;0.40;;;21.40;68.80;;;;;;5055955;28;20035;-53
2023/08/29 11:30:05;;;;;;;1.42;0.50;;;21.30;64.20;;;;;;5050335;28;20040;-56
2023/08/29 11:32:32;;;;;;;1.70;0.50;;;21.30;65.10;;;;;;5042338;28;20025;-55
2023/08/29 11:35:00;;;;;;;1.40;0.30;;;21.70;66.60;;;;;;5071534;28;20035;-53
2023/08/29 11:37:30;;;;;;;0.82;0.50;;;21.80;63.70;;;;;;5063066;28;20052;-55
2023/08/29 11:39:58;;;;;;;1.83;0.45;;;21.80;61.40;;;;;;5031220;28;20081;-54
2023/08/29 11:42:29;;;;;;;1.98;0.68;;;21.80;63.00;;;;;;5055815;28;20103;-54
2023/08/29 11:44:57;;;;;;;1.83;0.57;;;21.40;61.70;;;;;;5053739;28;20048;-53
2023/08/29 11:47:25;;;;;;;2.60;0.70;;;21.00;65.20;;;;;;5043082;28;20033;-54
2023/08/29 11:49:52;;;;;;;3.25;0.70;;;20.40;70.00;;;;;;5048380;28;20043;-57
2023/08/29 11:52:19;;;;;;;1.98;0.75;;;19.70;72.30;;;;;;5027476;28;20024;-52
2023/08/29 11:54:57;;;;;;;2.00;0.70;;;19.20;74.30;;;;;;5042274;28;20517;-53
2023/08/29 11:57:31;;;;;;;2.53;0.90;;;18.80;75.90;;;;;;5063987;28;20040;-53
2023/08/29 12:00:01;;;;;;;2.28;0.57;;;18.60;76.80;;;;;;5048575;28;20033;-54
2023/08/29 12:02:31;;;;;;;2.20;0.80;;;18.50;77.50;;;;;;5067054;28;20098;-55
2023/08/29 12:04:59;;;;;;;2.50;0.70;;;18.60;75.60;;;;;;5067810;28;20028;-55
2023/08/29 12:07:34;;;;;;;1.75;0.70;;;18.40;76.80;;;;;;5064545;28;20043;-51
2023/08/29 12:10:19;;;;;;;2.63;0.50;;;18.30;77.30;;;;;;5045142;28;20437;-54
2023/08/29 12:13:11;;;;;;;2.10;0.63;;;18.20;78.00;;;;;;5041493;28;20115;-52
2023/08/29 12:15:42;;;;;;;1.35;0.52;;;18.00;78.60;;;;;;5017745;28;20053;-54
2023/08/29 12:18:18;;;;;;;1.45;0.50;;;17.90;78.20;;;;;;5016405;28;20033;-50
2023/08/29 12:20:49;;;;;;;1.63;0.73;;;17.90;78.50;;;;;;5039980;28;20086;-51
2023/08/29 12:23:35;;;;;;;2.25;0.55;;;17.80;77.90;;;;;;5042171;28;20382;-51
2023/08/29 12:26:06;;;;;;;2.83;1.13;;;17.80;77.00;;;;;;5040116;28;20040;-56
2023/08/29 12:28:33;;;;;;;0.98;0.40;;;17.90;77.10;;;;;;5051110;28;20025;-55
2023/08/29 12:31:02;;;;;;;1.05;0.68;;;18.00;75.90;;;;;;5059261;28;20033;-51
2023/08/29 12:33:28;;;;;;;1.20;0.47;;;18.30;76.90;;;;;;5050467;28;20115;-53
2023/08/29 12:35:55;;;;;;;1.95;0.75;;;18.40;76.70;;;;;;5026786;28;20133;-55
2023/08/29 12:38:23;;;;;;;0.68;0.57;;;18.50;75.40;;;;;;5046183;28;20060;-52
2023/08/29 12:40:49;;;;;;;1.75;0.55;;;18.40;76.20;;;;;;5062260;28;20048;-56
2023/08/29 12:43:16;;;;;;;1.77;0.80;;;18.40;75.70;;;;;;5049151;28;20498;-54
2023/08/29 12:45:46;;;;;;;1.92;0.68;;;18.30;75.40;;;;;;5052476;28;20028;-56
2023/08/29 12:48:13;;;;;;;1.83;0.85;;;18.30;74.40;;;;;;5040363;28;20758;-54
2023/08/29 12:50:39;;;;;;;3.40;1.25;;;18.20;74.60;;;;;;5033725;28;20074;-52
2023/08/29 12:53:06;;;;;;;3.05;1.05;;;18.30;74.80;;;;;;5065156;28;20410;-51
2023/08/29 12:55:33;;;;;;;1.85;1.15;;;18.40;75.70;;;;;;5052404;28;20044;-54
2023/08/29 12:58:00;;;;;;;1.90;1.17;;;18.50;75.30;;;;;;5057770;28;20048;-56
2023/08/29 13:00:27;;;;;;;2.53;1.40;;;18.80;74.90;;;;;;5050408;28;20077;-55